createdAt,value
2018-08-30T11:23:41.817Z,21.50
2018-08-30T11:24:41.777Z,21.91
2018-08-30T11:25:41.753Z,21.99
2018-08-30T11:26:41.736Z,21.92
2018-08-30T11:27:41.722Z,21.49
2018-08-30T11:28:41.708Z,21.31
2018-08-30T11:29:41.705Z,20.97
2018-08-30T11:30:41.677Z,20.76
2018-08-30T11:31:41.666Z,20.70
2018-08-30T11:32:41.650Z,20.58
2018-08-30T11:33:41.638Z,20.66
2018-08-30T11:34:41.635Z,20.59
2018-08-30T11:35:41.608Z,20.48
2018-08-30T11:36:41.594Z,20.57
2018-08-30T11:37:41.624Z,20.03
2018-08-30T11:38:41.568Z,20.03
2018-08-30T11:39:41.556Z,20.74
2018-08-30T11:40:41.554Z,21.12
2018-08-30T11:41:41.552Z,21.92
2018-08-30T11:42:41.512Z,22.18
2018-08-30T11:43:41.503Z,22.28
2018-08-30T11:44:41.484Z,22.35
2018-08-30T11:45:41.472Z,22.73
2018-08-30T11:46:41.470Z,23.00
2018-08-30T11:47:41.447Z,22.75
2018-08-30T11:48:41.432Z,22.25
2018-08-30T11:49:41.419Z,21.84
2018-08-30T11:50:41.407Z,22.62
2018-08-30T11:51:41.409Z,22.45
2018-08-30T11:52:41.408Z,22.25
2018-08-30T11:53:41.367Z,22.27
2018-08-30T11:54:41.354Z,21.69
2018-08-30T11:55:41.342Z,22.18
2018-08-30T11:56:41.330Z,23.00
2018-08-30T11:57:41.335Z,23.65
2018-08-30T11:58:41.306Z,23.73
2018-08-30T11:59:41.296Z,22.52
2018-08-30T12:00:41.292Z,21.58
2018-08-30T12:01:41.267Z,20.99
2018-08-30T12:02:41.254Z,21.13
2018-08-30T12:03:41.282Z,21.16
2018-08-30T12:04:41.230Z,21.91
2018-08-30T12:05:41.218Z,21.42
2018-08-30T12:06:41.207Z,21.29
2018-08-30T12:07:41.195Z,22.03
2018-08-30T12:08:41.182Z,21.53
2018-08-30T12:09:41.178Z,21.25
2018-08-30T12:10:41.208Z,21.21
2018-08-30T12:11:41.190Z,21.14
2018-08-30T12:12:41.132Z,20.97
2018-08-30T12:13:41.143Z,20.84
2018-08-30T12:14:41.134Z,21.69
2018-08-30T12:15:41.101Z,22.94
2018-08-30T12:16:41.089Z,22.85
2018-08-30T12:17:41.076Z,23.87
2018-08-30T12:18:41.117Z,24.06
2018-08-30T12:19:41.043Z,23.38
2018-08-30T12:20:41.118Z,23.28
2018-08-30T12:21:41.026Z,23.02
2018-08-30T12:22:41.009Z,23.05
2018-08-30T12:23:40.998Z,23.28
2018-08-30T12:24:40.982Z,23.60
2018-08-30T12:25:40.971Z,22.72
2018-08-30T12:26:40.967Z,22.82
2018-08-30T12:27:40.945Z,22.05
2018-08-30T12:28:41.000Z,22.07
2018-08-30T12:29:40.933Z,21.91
2018-08-30T12:30:40.946Z,22.05
2018-08-30T12:31:41.005Z,22.35
2018-08-30T12:32:40.944Z,21.40
2018-08-30T12:33:40.938Z,21.21
2018-08-30T12:34:40.932Z,20.95
2018-08-30T12:35:40.981Z,20.58
2018-08-30T12:36:40.922Z,20.58
2018-08-30T12:37:40.942Z,20.36
2018-08-30T12:38:40.893Z,20.35
2018-08-30T12:39:40.889Z,20.26
2018-08-30T12:40:40.837Z,20.28
2018-08-30T12:41:40.861Z,20.33
2018-08-30T12:42:40.801Z,20.31
2018-08-30T12:43:40.861Z,21.53
2018-08-30T12:44:41.913Z,22.31
2018-08-30T12:45:40.732Z,22.21
2018-08-30T12:46:40.716Z,22.75
2018-08-30T12:47:40.753Z,22.31
2018-08-30T12:48:40.781Z,22.95
2018-08-30T12:49:40.805Z,23.40
2018-08-30T12:50:40.781Z,23.87
2018-08-30T12:51:40.914Z,22.40
2018-08-30T12:52:40.759Z,21.99
2018-08-30T12:53:40.714Z,21.68
2018-08-30T12:54:40.658Z,22.25
2018-08-30T12:55:40.717Z,23.16
2018-08-30T12:56:40.680Z,23.72
2018-08-30T12:57:40.771Z,23.61
2018-08-30T12:58:40.684Z,24.37
2018-08-30T12:59:40.766Z,23.91
2018-08-30T13:00:40.566Z,24.42
2018-08-30T13:01:40.774Z,24.34
2018-08-30T13:02:40.662Z,23.75
2018-08-30T13:03:40.638Z,23.95
2018-08-30T13:04:40.733Z,23.38
2018-08-30T13:05:40.732Z,23.51
2018-08-30T13:06:40.653Z,22.92
2018-08-30T13:07:40.667Z,23.93
2018-08-30T13:08:40.716Z,24.61
2018-08-30T13:09:40.489Z,24.53
2018-08-30T13:10:40.704Z,24.73
2018-08-30T13:11:40.750Z,24.80
2018-08-30T13:12:40.773Z,24.78
2018-08-30T13:13:40.554Z,25.52
2018-08-30T13:14:40.612Z,25.90
2018-08-30T13:15:40.521Z,26.21
2018-08-30T13:16:40.614Z,24.77
2018-08-30T13:17:40.629Z,24.35
2018-08-30T13:18:40.584Z,24.49
2018-08-30T13:19:40.710Z,24.95
2018-08-30T13:20:40.539Z,24.55
2018-08-30T13:21:40.772Z,25.21
2018-08-30T13:22:40.598Z,25.02
2018-08-30T13:23:40.616Z,25.82
2018-08-30T13:24:40.714Z,25.85
2018-08-30T13:25:40.561Z,25.64
2018-08-30T13:26:40.620Z,25.39
2018-08-30T13:27:40.618Z,24.90
2018-08-30T13:28:40.478Z,25.79
2018-08-30T13:29:40.569Z,24.95
2018-08-30T13:30:40.708Z,25.21
2018-08-30T13:31:40.630Z,24.95
2018-08-30T13:32:40.625Z,23.57
2018-08-30T13:33:40.461Z,23.58
2018-08-30T13:34:40.642Z,24.30
2018-08-30T13:35:40.452Z,24.20
2018-08-30T13:36:40.495Z,24.84
2018-08-30T13:37:40.705Z,24.76
2018-08-30T13:38:40.423Z,24.93
2018-08-30T13:39:40.552Z,24.53
2018-08-30T13:40:40.585Z,24.80
2018-08-30T13:41:40.558Z,25.14
2018-08-30T13:42:40.384Z,25.35
2018-08-30T13:43:40.581Z,24.99
2018-08-30T13:44:40.734Z,23.54
2018-08-30T13:45:40.317Z,23.78
2018-08-30T13:46:40.727Z,24.28
2018-08-30T13:47:40.374Z,24.81
2018-08-30T13:48:40.400Z,25.18
2018-08-30T13:49:40.377Z,25.52
2018-08-30T13:50:40.545Z,25.38
2018-08-30T13:51:40.556Z,25.21
2018-08-30T13:52:40.522Z,25.60
2018-08-30T13:53:40.257Z,25.02
2018-08-30T13:54:40.408Z,24.96
2018-08-30T13:55:40.373Z,24.98
2018-08-30T13:56:40.520Z,25.13
2018-08-30T13:57:40.697Z,25.09
2018-08-30T13:58:40.799Z,25.50
2018-08-30T13:59:40.537Z,26.10
2018-08-30T14:00:40.598Z,26.30
2018-08-30T14:01:40.319Z,25.91
2018-08-30T14:02:40.403Z,25.25
2018-08-30T14:03:40.260Z,24.71
2018-08-30T14:04:40.321Z,23.98
2018-08-30T14:05:40.376Z,24.03
2018-08-30T14:06:40.355Z,24.06
2018-08-30T14:07:40.170Z,23.63
2018-08-30T14:08:40.126Z,24.88
2018-08-30T14:09:40.301Z,25.08
2018-08-30T14:10:40.222Z,24.98
2018-08-30T14:11:40.136Z,24.27
2018-08-30T14:12:40.374Z,23.72
2018-08-30T14:13:40.135Z,24.40
2018-08-30T14:14:40.251Z,23.78
2018-08-30T14:15:39.818Z,23.47
2018-08-30T14:16:39.798Z,23.31
2018-08-30T14:17:39.846Z,22.68
2018-08-30T14:18:39.781Z,23.12
2018-08-30T14:19:39.867Z,23.32
2018-08-30T14:20:39.788Z,23.36
2018-08-30T14:21:39.753Z,24.09
2018-08-30T14:22:39.872Z,24.34
2018-08-30T14:23:39.750Z,24.65
2018-08-30T14:24:39.724Z,24.67
2018-08-30T14:25:39.720Z,23.75
2018-08-30T14:26:39.782Z,23.05
2018-08-30T14:27:39.699Z,23.33
2018-08-30T14:28:39.685Z,24.05
2018-08-30T14:29:39.677Z,24.27
2018-08-30T14:30:39.685Z,24.99
2018-08-30T14:31:39.662Z,24.99
2018-08-30T14:32:39.699Z,24.37
2018-08-30T14:33:39.668Z,23.69
2018-08-30T14:34:39.634Z,24.32
2018-08-30T14:35:39.630Z,23.00
2018-08-30T14:36:39.694Z,23.61
2018-08-30T14:37:39.636Z,24.39
2018-08-30T14:38:39.598Z,24.65
2018-08-30T14:39:39.591Z,24.65
2018-08-30T14:40:39.621Z,24.58
2018-08-30T14:41:39.630Z,24.08
2018-08-30T14:42:39.564Z,24.40
2018-08-30T14:43:39.574Z,24.69
2018-08-30T14:44:39.543Z,25.32
2018-08-30T14:45:39.571Z,24.95
2018-08-30T14:46:39.523Z,25.55
2018-08-30T14:47:39.558Z,25.62
2018-08-30T14:48:39.516Z,25.14
2018-08-30T14:49:39.508Z,25.32
2018-08-30T14:50:39.488Z,25.35
2018-08-30T14:51:39.483Z,24.93
2018-08-30T14:52:39.479Z,24.90
2018-08-30T14:53:39.524Z,25.23
2018-08-30T14:54:39.511Z,25.60
2018-08-30T14:55:39.451Z,25.30
2018-08-30T14:56:39.442Z,24.40
2018-08-30T14:57:39.432Z,24.80
2018-08-30T14:58:39.425Z,24.87
2018-08-30T14:59:39.433Z,24.93
2018-08-30T15:00:39.427Z,25.15
2018-08-30T15:01:39.405Z,25.03
2018-08-30T15:02:39.395Z,25.82
2018-08-30T15:03:39.391Z,25.99
2018-08-30T15:04:39.377Z,26.52
2018-08-30T15:05:39.445Z,26.06
2018-08-30T15:06:39.394Z,26.18
2018-08-30T15:07:39.360Z,26.06
2018-08-30T15:08:39.348Z,26.02
2018-08-30T15:09:39.334Z,25.27
2018-08-30T15:10:39.352Z,25.61
2018-08-30T15:11:39.377Z,25.18
2018-08-30T15:12:39.392Z,25.35
2018-08-30T15:13:39.316Z,24.57
2018-08-30T15:14:39.302Z,24.64
2018-08-30T15:15:39.297Z,24.76
2018-08-30T15:16:39.307Z,25.64
2018-08-30T15:17:39.299Z,25.70
2018-08-30T15:18:39.278Z,25.18
2018-08-30T15:19:39.303Z,24.93
2018-08-30T15:20:39.262Z,23.28
2018-08-30T15:21:39.254Z,22.52
2018-08-30T15:22:39.250Z,22.21
2018-08-30T15:23:39.254Z,21.75
2018-08-30T15:24:39.232Z,21.43
2018-08-30T15:25:39.224Z,21.29
2018-08-30T15:26:39.221Z,21.28
2018-08-30T15:27:39.208Z,20.99
2018-08-30T15:28:39.271Z,21.04
2018-08-30T15:29:39.205Z,20.80
2018-08-30T15:30:39.191Z,20.76
2018-08-30T15:31:39.181Z,20.73
2018-08-30T15:32:39.168Z,20.64
2018-08-30T15:33:39.161Z,20.73
2018-08-30T15:34:39.158Z,20.92
2018-08-30T15:35:39.133Z,20.95
2018-08-30T15:36:39.122Z,21.07
2018-08-30T15:37:39.113Z,21.54
2018-08-30T15:38:39.104Z,21.90
2018-08-30T15:39:39.099Z,21.99
2018-08-30T15:40:39.113Z,22.15
2018-08-30T15:41:39.074Z,22.25
2018-08-30T15:42:39.062Z,22.61
2018-08-30T15:43:39.053Z,22.86
2018-08-30T15:44:39.045Z,23.04
2018-08-30T15:45:39.030Z,23.32
2018-08-30T15:46:39.034Z,23.00
2018-08-30T15:47:39.013Z,23.35
2018-08-30T15:48:39.029Z,23.23
2018-08-30T15:49:38.997Z,22.21
2018-08-30T15:50:38.985Z,21.98
2018-08-30T15:51:38.988Z,21.94
2018-08-30T15:52:38.963Z,22.05
2018-08-30T15:53:38.965Z,22.18
2018-08-30T15:54:38.945Z,22.49
2018-08-30T15:55:38.935Z,22.94
2018-08-30T15:56:38.925Z,22.73
2018-08-30T15:57:38.930Z,23.28
2018-08-30T15:58:38.907Z,22.94
2018-08-30T15:59:38.906Z,22.90
2018-08-30T16:00:38.887Z,22.70
2018-08-30T16:01:39.028Z,22.57
2018-08-30T16:02:38.869Z,22.57
2018-08-30T16:03:38.877Z,22.36
2018-08-30T16:04:38.856Z,22.45
2018-08-30T16:05:38.838Z,21.77
2018-08-30T16:06:38.948Z,21.67
2018-08-30T16:07:38.818Z,21.43
2018-08-30T16:08:38.809Z,21.42
2018-08-30T16:09:38.815Z,21.64
2018-08-30T16:10:38.796Z,21.96
2018-08-30T16:11:38.776Z,22.20
2018-08-30T16:12:38.769Z,22.22
2018-08-30T16:13:38.757Z,22.31
2018-08-30T16:14:38.750Z,22.21
2018-08-30T16:15:38.784Z,22.57
2018-08-30T16:16:38.731Z,22.76
2018-08-30T16:17:38.719Z,22.97
2018-08-30T16:18:38.805Z,23.05
2018-08-30T16:19:38.707Z,22.45
2018-08-30T16:20:38.689Z,22.95
2018-08-30T16:21:38.691Z,23.12
2018-08-30T16:22:38.677Z,23.15
2018-08-30T16:23:38.664Z,22.90
2018-08-30T16:24:38.746Z,21.82
2018-08-30T16:25:38.648Z,21.90
2018-08-30T16:26:38.648Z,22.30
2018-08-30T16:27:38.626Z,21.71
2018-08-30T16:28:38.783Z,21.71
2018-08-30T16:29:38.608Z,22.03
2018-08-30T16:30:38.674Z,22.21
2018-08-30T16:31:38.587Z,22.46
2018-08-30T16:32:38.594Z,22.20
2018-08-30T16:33:38.569Z,22.05
2018-08-30T16:34:38.564Z,22.03
2018-08-30T16:35:38.619Z,21.96
2018-08-30T16:36:38.564Z,21.94
2018-08-30T16:37:38.565Z,21.54
2018-08-30T16:38:38.527Z,21.56
2018-08-30T16:39:38.523Z,21.35
2018-08-30T16:40:38.498Z,21.43
2018-08-30T16:41:38.495Z,21.59
2018-08-30T16:42:38.480Z,21.62
2018-08-30T16:43:38.483Z,21.80
2018-08-30T16:44:38.460Z,21.98
2018-08-30T16:45:38.447Z,22.21
2018-08-30T16:46:38.436Z,21.77
2018-08-30T16:47:38.429Z,21.82
2018-08-30T16:48:38.437Z,22.21
2018-08-30T16:49:38.427Z,22.39
2018-08-30T16:50:38.413Z,22.36
2018-08-30T16:51:38.385Z,22.45
2018-08-30T16:52:38.373Z,21.69
2018-08-30T16:53:38.377Z,22.00
2018-08-30T16:54:38.369Z,22.06
2018-08-30T16:55:38.431Z,22.12
2018-08-30T16:56:38.337Z,22.31
2018-08-30T16:57:38.336Z,22.24
2018-08-30T16:58:38.311Z,22.21
2018-08-30T16:59:38.312Z,21.92
2018-08-30T17:00:38.310Z,21.43
2018-08-30T17:01:38.292Z,20.98
2018-08-30T17:02:38.272Z,20.76
2018-08-30T17:03:38.298Z,20.55
2018-08-30T17:04:38.302Z,20.70
2018-08-30T17:05:38.243Z,20.67
2018-08-30T17:06:38.390Z,20.55
2018-08-30T17:07:38.253Z,20.57
2018-08-30T17:08:38.226Z,20.50
2018-08-30T17:09:38.193Z,20.42
2018-08-30T17:10:38.184Z,20.48
2018-08-30T17:11:38.173Z,20.43
2018-08-30T17:12:38.164Z,20.39
2018-08-30T17:13:38.157Z,20.41
2018-08-30T17:14:38.138Z,20.50
2018-08-30T17:15:38.124Z,20.47
2018-08-30T17:16:38.115Z,20.58
2018-08-30T17:17:38.203Z,20.51
2018-08-30T17:18:38.102Z,20.47
2018-08-30T17:19:38.157Z,20.42
2018-08-30T17:20:38.065Z,20.41
2018-08-30T17:21:38.054Z,20.42
2018-08-30T17:22:38.038Z,20.36
2018-08-30T17:23:38.128Z,20.41
2018-08-30T17:24:38.027Z,20.54
2018-08-30T17:25:38.000Z,20.39
2018-08-30T17:26:38.064Z,20.35
2018-08-30T17:27:38.038Z,20.33
2018-08-30T17:28:37.962Z,20.35
2018-08-30T17:29:37.947Z,20.24
2018-08-30T17:30:37.951Z,20.14
2018-08-30T17:31:37.922Z,20.08
2018-08-30T17:32:37.917Z,20.03
2018-08-30T17:33:37.896Z,20.08
2018-08-30T17:34:37.881Z,20.03
2018-08-30T17:35:37.870Z,19.98
2018-08-30T17:36:37.865Z,19.88
2018-08-30T17:37:37.933Z,19.77
2018-08-30T17:38:37.830Z,19.76
2018-08-30T17:39:37.817Z,19.74
2018-08-30T17:40:37.809Z,19.66
2018-08-30T17:41:37.805Z,19.68
2018-08-30T17:42:37.775Z,19.59
2018-08-30T17:43:37.763Z,19.54
2018-08-30T17:44:37.749Z,19.54
2018-08-30T17:45:37.737Z,19.50
2018-08-30T17:46:37.721Z,19.43
2018-08-30T17:47:37.736Z,19.37
2018-08-30T17:48:37.693Z,19.21
2018-08-30T17:49:37.681Z,19.28
2018-08-30T17:50:37.836Z,19.31
2018-08-30T17:51:37.652Z,19.18
2018-08-30T17:52:37.638Z,19.22
2018-08-30T17:53:37.638Z,19.21
2018-08-30T17:54:37.611Z,19.19
2018-08-30T17:55:37.597Z,19.04
2018-08-30T17:56:37.582Z,19.07
2018-08-30T17:57:37.568Z,19.00
2018-08-30T17:58:37.606Z,19.00
2018-08-30T17:59:37.539Z,18.88
2018-08-30T18:00:37.608Z,18.94
2018-08-30T18:01:37.512Z,19.04
2018-08-30T18:02:37.496Z,18.90
2018-08-30T18:03:37.484Z,18.91
2018-08-30T18:04:37.479Z,18.85
2018-08-30T18:05:37.453Z,18.69
2018-08-30T18:06:37.440Z,18.62
2018-08-30T18:07:37.424Z,18.54
2018-08-30T18:08:37.408Z,18.45
2018-08-30T18:09:37.395Z,18.37
2018-08-30T18:10:37.391Z,18.37
2018-08-30T18:11:37.367Z,18.32
2018-08-30T18:12:37.350Z,18.20
2018-08-30T18:13:37.339Z,18.11
2018-08-30T18:14:37.323Z,17.95
2018-08-30T18:15:37.338Z,17.95
2018-08-30T18:16:37.291Z,17.82
2018-08-30T18:17:37.276Z,17.66
2018-08-30T18:18:37.301Z,17.64
2018-08-30T18:19:37.249Z,17.97
2018-08-30T18:20:37.232Z,17.95
2018-08-30T18:21:37.227Z,17.96
2018-08-30T18:22:37.206Z,17.95
2018-08-30T18:23:37.187Z,17.90
2018-08-30T18:24:37.172Z,17.81
2018-08-30T18:25:37.157Z,17.93
2018-08-30T18:26:37.160Z,17.84
2018-08-30T18:27:37.127Z,17.77
2018-08-30T18:28:37.110Z,17.63
2018-08-30T18:29:37.097Z,17.55
2018-08-30T18:30:37.080Z,17.44
2018-08-30T18:31:37.068Z,17.36
2018-08-30T18:32:37.058Z,17.26
2018-08-30T18:33:37.036Z,17.18
2018-08-30T18:34:37.019Z,17.04
2018-08-30T18:35:37.006Z,16.88
2018-08-30T18:36:36.989Z,16.86
2018-08-30T18:37:37.016Z,16.82
2018-08-30T18:38:36.965Z,16.85
2018-08-30T18:39:36.945Z,16.97
2018-08-30T18:40:36.973Z,16.96
2018-08-30T18:41:36.912Z,16.89
2018-08-30T18:42:36.905Z,16.68
2018-08-30T18:43:36.876Z,16.66
2018-08-30T18:44:36.867Z,16.52
2018-08-30T18:45:36.848Z,16.50
2018-08-30T18:46:36.844Z,16.42
2018-08-30T18:47:36.849Z,16.38
2018-08-30T18:48:36.801Z,16.42
2018-08-30T18:49:36.785Z,16.24
2018-08-30T18:50:36.771Z,16.24
2018-08-30T18:51:36.757Z,16.09
2018-08-30T18:52:36.742Z,16.00
2018-08-30T18:53:36.735Z,15.96
2018-08-30T18:54:36.707Z,15.83
2018-08-30T18:55:36.689Z,15.74
2018-08-30T18:56:36.676Z,15.56
2018-08-30T18:57:36.658Z,15.50
2018-08-30T18:58:36.657Z,15.41
2018-08-30T18:59:36.629Z,15.31
2018-08-30T19:00:36.610Z,15.36
2018-08-30T19:01:36.598Z,15.36
2018-08-30T19:02:36.578Z,15.25
2018-08-30T19:03:36.563Z,15.29
2018-08-30T19:04:36.557Z,15.25
2018-08-30T19:05:36.531Z,15.20
2018-08-30T19:06:36.514Z,15.14
2018-08-30T19:07:36.500Z,15.10
2018-08-30T19:08:36.481Z,15.10
2018-08-30T19:09:36.476Z,15.10
2018-08-30T19:10:36.450Z,15.10
2018-08-30T19:11:36.433Z,15.13
2018-08-30T19:12:36.414Z,15.06
2018-08-30T19:13:36.401Z,15.02
2018-08-30T19:14:36.400Z,14.96
2018-08-30T19:15:36.368Z,14.91
2018-08-30T19:16:36.350Z,14.89
2018-08-30T19:17:36.334Z,14.88
2018-08-30T19:18:36.313Z,14.77
2018-08-30T19:19:36.301Z,14.73
2018-08-30T19:20:36.353Z,14.65
2018-08-30T19:21:36.267Z,14.68
2018-08-30T19:22:36.251Z,14.73
2018-08-30T19:23:36.236Z,14.69
2018-08-30T19:24:36.216Z,14.64
2018-08-30T19:25:36.216Z,14.70
2018-08-30T19:26:36.184Z,14.58
2018-08-30T19:27:36.182Z,14.62
2018-08-30T19:28:36.152Z,14.77
2018-08-30T19:29:36.136Z,14.70
2018-08-30T19:30:36.129Z,14.77
2018-08-30T19:31:36.105Z,14.55
2018-08-30T19:32:36.084Z,14.55
2018-08-30T19:33:36.068Z,14.60
2018-08-30T19:34:36.052Z,14.51
2018-08-30T19:35:36.044Z,14.45
2018-08-30T19:36:36.016Z,14.39
2018-08-30T19:37:36.000Z,14.39
2018-08-30T19:38:35.985Z,14.37
2018-08-30T19:39:35.968Z,14.40
2018-08-30T19:40:35.963Z,14.33
2018-08-30T19:41:35.933Z,14.28
2018-08-30T19:42:35.934Z,14.22
2018-08-30T19:43:35.903Z,14.14
2018-08-30T19:44:35.883Z,14.10
2018-08-30T19:45:35.865Z,14.15
2018-08-30T19:46:35.858Z,14.06
2018-08-30T19:47:35.831Z,14.07
2018-08-30T19:48:35.813Z,14.02
2018-08-30T19:49:35.799Z,14.12
2018-08-30T19:50:35.779Z,14.04
2018-08-30T19:51:35.774Z,14.04
2018-08-30T19:52:35.822Z,13.96
2018-08-30T19:53:35.731Z,13.91
2018-08-30T19:54:35.774Z,13.89
2018-08-30T19:55:35.694Z,13.96
2018-08-30T19:56:35.692Z,13.89
2018-08-30T19:57:35.659Z,13.82
2018-08-30T19:58:35.643Z,13.84
2018-08-30T19:59:35.625Z,13.81
2018-08-30T20:00:35.608Z,13.71
2018-08-30T20:01:35.590Z,13.77
2018-08-30T20:02:35.588Z,13.75
2018-08-30T20:03:35.560Z,13.67
2018-08-30T20:04:35.540Z,13.66
2018-08-30T20:05:35.525Z,13.64
2018-08-30T20:06:35.505Z,13.67
2018-08-30T20:07:35.567Z,13.63
2018-08-30T20:08:35.471Z,13.62
2018-08-30T20:09:35.452Z,13.62
2018-08-30T20:10:35.435Z,13.57
2018-08-30T20:11:35.418Z,13.51
2018-08-30T20:12:35.418Z,13.45
2018-08-30T20:13:35.385Z,13.45
2018-08-30T20:14:35.366Z,13.54
2018-08-30T20:15:35.349Z,13.48
2018-08-30T20:16:35.332Z,13.57
2018-08-30T20:17:35.314Z,13.44
2018-08-30T20:18:35.306Z,13.32
2018-08-30T20:19:35.278Z,13.41
2018-08-30T20:20:35.264Z,13.44
2018-08-30T20:21:35.243Z,13.41
2018-08-30T20:22:35.224Z,13.29
2018-08-30T20:23:35.220Z,13.33
2018-08-30T20:24:35.198Z,13.26
2018-08-30T20:25:35.175Z,13.22
2018-08-30T20:26:35.155Z,13.23
2018-08-30T20:27:35.140Z,13.22
2018-08-30T20:28:35.132Z,13.20
2018-08-30T20:29:35.101Z,13.19
2018-08-30T20:30:35.085Z,13.15
2018-08-30T20:31:35.066Z,13.14
2018-08-30T20:32:35.049Z,13.07
2018-08-30T20:33:35.031Z,13.10
2018-08-30T20:34:35.024Z,13.03
2018-08-30T20:35:34.996Z,13.03
2018-08-30T20:36:34.979Z,13.01
2018-08-30T20:37:34.962Z,13.00
2018-08-30T20:38:34.945Z,12.97
2018-08-30T20:39:34.941Z,13.00
2018-08-30T20:40:34.908Z,13.01
2018-08-30T20:41:34.887Z,13.03
2018-08-30T20:42:34.871Z,13.00
2018-08-30T20:43:34.852Z,13.07
2018-08-30T20:44:34.855Z,13.10
2018-08-30T20:45:34.818Z,13.05
2018-08-30T20:46:34.804Z,13.01
2018-08-30T20:47:34.784Z,13.00
2018-08-30T20:48:34.768Z,12.85
2018-08-30T20:49:34.747Z,12.86
2018-08-30T20:50:34.741Z,12.86
2018-08-30T20:51:34.711Z,12.75
2018-08-30T20:52:34.692Z,12.79
2018-08-30T20:53:34.682Z,12.71
2018-08-30T20:54:34.662Z,12.72
2018-08-30T20:55:34.648Z,12.72
2018-08-30T20:56:34.620Z,12.71
2018-08-30T20:57:34.602Z,12.78
2018-08-30T20:58:34.586Z,12.71
2018-08-30T20:59:34.569Z,12.60
2018-08-30T21:00:34.560Z,12.57
2018-08-30T21:01:34.534Z,12.50
2018-08-30T21:02:34.513Z,12.50
2018-08-30T21:03:34.496Z,12.50
2018-08-30T21:04:34.477Z,12.47
2018-08-30T21:05:34.476Z,12.50
2018-08-30T21:06:34.446Z,12.47
2018-08-30T21:07:34.425Z,12.39
2018-08-30T21:08:34.405Z,12.41
2018-08-30T21:09:34.386Z,12.39
2018-08-30T21:10:34.370Z,12.31
2018-08-30T21:11:34.366Z,12.42
2018-08-30T21:12:34.332Z,12.45
2018-08-30T21:13:34.316Z,12.37
2018-08-30T21:14:34.297Z,12.32
2018-08-30T21:15:34.280Z,12.34
2018-08-30T21:16:34.274Z,12.41
2018-08-30T21:17:34.242Z,12.49
2018-08-30T21:18:34.223Z,12.45
2018-08-30T21:19:34.207Z,12.47
2018-08-30T21:20:34.186Z,12.39
2018-08-30T21:21:34.169Z,12.35
2018-08-30T21:22:34.162Z,12.42
2018-08-30T21:23:34.133Z,12.31
2018-08-30T21:24:34.115Z,12.38
2018-08-30T21:25:34.096Z,12.37
2018-08-30T21:26:34.079Z,12.39
2018-08-30T21:27:34.108Z,12.34
2018-08-30T21:28:34.048Z,12.49
2018-08-30T21:29:34.024Z,12.54
2018-08-30T21:30:34.007Z,12.57
2018-08-30T21:31:33.987Z,12.57
2018-08-30T21:32:33.981Z,12.46
2018-08-30T21:33:33.971Z,12.42
2018-08-30T21:34:33.935Z,12.45
2018-08-30T21:35:33.913Z,12.41
2018-08-30T21:36:33.902Z,12.41
2018-08-30T21:37:33.881Z,12.35
2018-08-30T21:38:33.871Z,12.34
2018-08-30T21:39:33.843Z,12.37
2018-08-30T21:40:33.820Z,12.37
2018-08-30T21:41:33.804Z,12.38
2018-08-30T21:42:33.788Z,12.29
2018-08-30T21:43:33.781Z,12.31
2018-08-30T21:44:33.749Z,12.24
2018-08-30T21:45:33.730Z,12.12
2018-08-30T21:46:33.711Z,12.21
2018-08-30T21:47:33.694Z,12.12
2018-08-30T21:48:33.709Z,12.13
2018-08-30T21:49:33.658Z,11.96
2018-08-30T21:50:33.640Z,12.07
2018-08-30T21:51:33.620Z,11.95
2018-08-30T21:52:33.602Z,11.94
2018-08-30T21:53:33.583Z,12.04
2018-08-30T21:54:33.586Z,11.98
2018-08-30T21:55:33.548Z,11.98
2018-08-30T21:56:33.532Z,12.10
2018-08-30T21:57:33.508Z,11.96
2018-08-30T21:58:33.492Z,11.98
2018-08-30T21:59:33.473Z,12.02
2018-08-30T22:00:33.461Z,11.99
2018-08-30T22:01:33.435Z,12.05
2018-08-30T22:02:33.418Z,11.96
2018-08-30T22:03:33.401Z,12.09
2018-08-30T22:04:33.380Z,11.96
2018-08-30T22:05:33.376Z,11.96
2018-08-30T22:06:33.342Z,12.01
2018-08-30T22:07:33.323Z,11.96
2018-08-30T22:08:33.305Z,11.98
2018-08-30T22:09:33.287Z,12.01
2018-08-30T22:10:33.267Z,12.07
2018-08-30T22:11:33.262Z,12.10
2018-08-30T22:12:33.230Z,12.09
2018-08-30T22:13:33.213Z,12.19
2018-08-30T22:14:33.196Z,12.23
2018-08-30T22:15:33.175Z,12.14
2018-08-30T22:16:33.195Z,12.12
2018-08-30T22:17:33.151Z,12.10
2018-08-30T22:18:33.120Z,12.04
2018-08-30T22:19:33.102Z,12.04
2018-08-30T22:20:33.082Z,12.01
2018-08-30T22:21:33.062Z,12.04
2018-08-30T22:22:33.055Z,11.94
2018-08-30T22:23:33.026Z,11.95
2018-08-30T22:24:33.008Z,11.83
2018-08-30T22:25:32.988Z,11.82
2018-08-30T22:26:32.975Z,11.83
2018-08-30T22:27:32.974Z,11.86
2018-08-30T22:28:32.933Z,11.91
2018-08-30T22:29:32.915Z,11.96
2018-08-30T22:30:32.899Z,11.88
2018-08-30T22:31:32.877Z,11.85
2018-08-30T22:32:32.857Z,11.79
2018-08-30T22:33:32.851Z,11.76
2018-08-30T22:34:32.822Z,11.70
2018-08-30T22:35:32.804Z,11.65
2018-08-30T22:36:32.784Z,11.52
2018-08-30T22:37:32.897Z,11.60
2018-08-30T22:38:32.797Z,11.55
2018-08-30T22:39:32.744Z,11.55
2018-08-30T22:40:32.796Z,11.49
2018-08-30T22:41:32.690Z,11.54
2018-08-30T22:42:32.764Z,11.52
2018-08-30T22:43:32.687Z,11.57
2018-08-30T22:44:32.632Z,11.54
2018-08-30T22:45:32.614Z,11.46
2018-08-30T22:46:32.618Z,11.43
2018-08-30T22:47:32.604Z,11.46
2018-08-30T22:48:32.561Z,11.36
2018-08-30T22:49:32.548Z,11.37
2018-08-30T22:50:32.527Z,11.43
2018-08-30T22:51:32.504Z,11.35
2018-08-30T22:52:32.483Z,11.42
2018-08-30T22:53:32.464Z,11.27
2018-08-30T22:54:32.514Z,11.37
2018-08-30T22:55:32.546Z,11.39
2018-08-30T22:56:32.406Z,11.39
2018-08-30T22:57:32.441Z,11.36
2018-08-30T22:58:32.436Z,11.40
2018-08-30T22:59:32.358Z,11.40
2018-08-30T23:00:32.344Z,11.37
2018-08-30T23:01:32.312Z,11.47
2018-08-30T23:02:32.297Z,11.54
2018-08-30T23:03:32.277Z,11.61
2018-08-30T23:04:32.259Z,11.72
2018-08-30T23:05:32.249Z,11.73
2018-08-30T23:06:32.231Z,11.88
2018-08-30T23:07:32.201Z,11.83
2018-08-30T23:08:32.190Z,11.95
2018-08-30T23:09:32.166Z,11.90
2018-08-30T23:10:32.158Z,11.91
2018-08-30T23:11:32.123Z,11.90
2018-08-30T23:12:32.104Z,11.86
2018-08-30T23:13:32.085Z,11.79
2018-08-30T23:14:32.068Z,11.78
2018-08-30T23:15:32.049Z,11.79
2018-08-30T23:16:32.117Z,11.67
2018-08-30T23:17:32.010Z,11.60
2018-08-30T23:18:31.992Z,11.58
2018-08-30T23:19:31.979Z,11.52
2018-08-30T23:20:31.952Z,11.47
2018-08-30T23:21:31.959Z,11.43
2018-08-30T23:22:31.915Z,11.37
2018-08-30T23:23:31.899Z,11.39
2018-08-30T23:24:31.882Z,11.35
2018-08-30T23:25:31.864Z,11.29
2018-08-30T23:26:31.860Z,11.28
2018-08-30T23:27:31.830Z,11.24
2018-08-30T23:28:31.811Z,11.21
2018-08-30T23:29:31.785Z,11.32
2018-08-30T23:30:31.828Z,11.37
2018-08-30T23:31:31.743Z,11.40
2018-08-30T23:32:31.733Z,11.44
2018-08-30T23:33:31.705Z,11.47
2018-08-30T23:34:31.687Z,11.52
2018-08-30T23:35:31.670Z,11.52
2018-08-30T23:36:31.673Z,11.52
2018-08-30T23:37:31.651Z,11.54
2018-08-30T23:38:31.648Z,11.57
2018-08-30T23:39:31.592Z,11.52
2018-08-30T23:40:31.576Z,11.52
2018-08-30T23:41:31.552Z,11.61
2018-08-30T23:42:31.539Z,11.51
2018-08-30T23:43:31.541Z,11.57
2018-08-30T23:44:31.497Z,11.58
2018-08-30T23:45:31.476Z,11.55
2018-08-30T23:46:31.456Z,11.58
2018-08-30T23:47:31.441Z,11.55
2018-08-30T23:48:31.419Z,11.55
2018-08-30T23:49:31.435Z,11.55
2018-08-30T23:50:31.381Z,11.57
2018-08-30T23:51:31.378Z,11.61
2018-08-30T23:52:31.342Z,11.65
2018-08-30T23:53:31.324Z,11.62
2018-08-30T23:54:31.306Z,11.67
2018-08-30T23:55:31.301Z,11.69
2018-08-30T23:56:31.267Z,11.72
2018-08-30T23:57:31.248Z,11.75
2018-08-30T23:58:31.232Z,11.75
2018-08-30T23:59:31.209Z,11.79
